createdAt,value
2019-02-20T05:03:44.597Z,6.003418
2019-02-20T05:07:21.487Z,5.983276
2019-02-20T05:10:49.420Z,5.983276
2019-02-20T05:14:18.375Z,5.983276
2019-02-20T05:17:47.378Z,5.983276
2019-02-20T05:21:15.253Z,5.983276
2019-02-20T05:24:43.238Z,6.003418
2019-02-20T05:28:11.210Z,6.02356
2019-02-20T05:31:40.155Z,6.03363
2019-02-20T05:35:08.093Z,6.03363
2019-02-20T05:38:37.061Z,6.053772
2019-02-20T05:42:04.964Z,6.03363
2019-02-20T05:45:32.922Z,6.03363
2019-02-20T05:49:01.077Z,6.03363
2019-02-20T05:52:29.009Z,6.03363
2019-02-20T05:55:56.979Z,6.003418
2019-02-20T05:59:25.700Z,6.02356
2019-02-20T06:02:53.674Z,6.02356
2019-02-20T06:06:23.329Z,6.053772
2019-02-20T06:09:51.280Z,6.053772
2019-02-20T06:13:19.220Z,6.094055
2019-02-20T06:16:47.216Z,6.114197
2019-02-20T06:20:15.147Z,6.114197
2019-02-20T06:23:43.209Z,6.124268
2019-02-20T06:27:11.130Z,6.02356
2019-02-20T06:30:39.110Z,5.953064
2019-02-20T06:34:07.045Z,5.90271
2019-02-20T06:37:34.977Z,5.842285
2019-02-20T06:41:02.923Z,5.731506
2019-02-20T06:44:30.873Z,5.721436
2019-02-20T06:47:58.860Z,5.671082
2019-02-20T06:51:27.760Z,5.671082
2019-02-20T06:54:55.685Z,5.721436
2019-02-20T06:58:23.655Z,5.721436
2019-02-20T07:01:51.577Z,5.802002
2019-02-20T07:05:19.538Z,5.791931
2019-02-20T07:08:47.515Z,5.791931
2019-02-20T07:12:15.435Z,5.791931
2019-02-20T07:15:43.378Z,5.822144
2019-02-20T07:19:11.347Z,5.842285
2019-02-20T07:22:39.313Z,5.842285
2019-02-20T07:26:07.403Z,5.872498
2019-02-20T07:29:35.516Z,5.90271
2019-02-20T07:33:03.437Z,5.932922
2019-02-20T07:36:32.437Z,5.983276
2019-02-20T07:40:00.566Z,6.053772
2019-02-20T07:43:28.907Z,6.164551
2019-02-20T07:46:57.509Z,6.295471
2019-02-20T07:50:26.448Z,6.345825
2019-02-20T07:53:54.381Z,6.416321
2019-02-20T07:57:22.561Z,6.466675
2019-02-20T08:00:50.491Z,6.517029
2019-02-20T08:04:18.526Z,6.547241
2019-02-20T08:07:46.465Z,6.567383
2019-02-20T08:11:14.382Z,6.627808
2019-02-20T08:14:42.313Z,6.627808
2019-02-20T08:18:10.271Z,6.567383
2019-02-20T08:21:38.241Z,6.647949
2019-02-20T08:25:06.165Z,6.637878
2019-02-20T08:28:35.094Z,6.567383
2019-02-20T08:32:03.111Z,6.597595
2019-02-20T08:35:31.006Z,6.668091
2019-02-20T08:38:58.935Z,6.77887
2019-02-20T08:42:26.859Z,6.829224
2019-02-20T08:45:54.812Z,6.879578
2019-02-20T08:49:22.835Z,6.90979
2019-02-20T08:52:50.787Z,6.970215
2019-02-20T08:56:18.757Z,7.080994
2019-02-20T08:59:46.700Z,7.060852
2019-02-20T09:03:15.684Z,7.080994
2019-02-20T09:06:43.620Z,7.101135
2019-02-20T09:10:12.551Z,7.03064
2019-02-20T09:13:41.501Z,7.16156
2019-02-20T09:17:09.677Z,7.242126
2019-02-20T09:20:37.640Z,7.211914
2019-02-20T09:24:06.566Z,7.29248
2019-02-20T09:27:34.490Z,7.433472
2019-02-20T09:31:02.473Z,7.675171
2019-02-20T09:34:30.421Z,7.705383
2019-02-20T09:37:58.387Z,7.755737
2019-02-20T09:41:26.342Z,7.765808
2019-02-20T09:44:54.251Z,7.675171
2019-02-20T09:48:22.231Z,7.705383
2019-02-20T09:51:50.171Z,7.675171
2019-02-20T09:55:18.103Z,7.775879
2019-02-20T09:58:46.103Z,7.806091
2019-02-20T10:02:15.039Z,7.796021
2019-02-20T10:05:43.002Z,7.826233
2019-02-20T10:09:10.936Z,7.906799
2019-02-20T10:12:40.863Z,8.057861
2019-02-20T10:16:08.813Z,8.158569
2019-02-20T10:19:36.788Z,8.16864
2019-02-20T10:23:04.776Z,8.259277
2019-02-20T10:26:33.405Z,8.440552
2019-02-20T10:30:02.433Z,8.621826
2019-02-20T10:33:30.423Z,8.712463
2019-02-20T10:36:59.102Z,8.893738
2019-02-20T10:40:27.052Z,8.984375
2019-02-20T10:43:55.030Z,8.903809
2019-02-20T10:47:23.042Z,8.934021
2019-02-20T10:50:51.991Z,9.034729
2019-02-20T10:54:19.931Z,8.92395
2019-02-20T10:57:47.882Z,8.803101
2019-02-20T11:01:16.722Z,8.712463
2019-02-20T11:04:44.715Z,8.833313
2019-02-20T11:08:20.739Z,8.984375
2019-02-20T11:11:48.642Z,9.216003
2019-02-20T11:15:17.533Z,8.984375
2019-02-20T11:18:45.454Z,8.853455
2019-02-20T11:22:13.367Z,8.984375
2019-02-20T11:25:42.252Z,8.903809
2019-02-20T11:29:10.166Z,8.984375
2019-02-20T11:32:38.079Z,9.105225
2019-02-20T11:36:05.994Z,8.994446
2019-02-20T11:39:37.624Z,8.994446
2019-02-20T11:43:06.199Z,8.954163
2019-02-20T11:46:33.798Z,8.954163
2019-02-20T11:50:01.722Z,9.034729
2019-02-20T11:53:36.973Z,9.014587
2019-02-20T11:57:01.526Z,9.145508
2019-02-20T12:00:29.409Z,9.145508
2019-02-20T12:03:57.327Z,9.014587
2019-02-20T12:07:25.238Z,8.893738
2019-02-20T12:10:54.827Z,8.833313
2019-02-20T12:14:24.198Z,8.954163
2019-02-20T12:17:51.977Z,8.903809
2019-02-20T12:21:19.868Z,8.853455
2019-02-20T12:24:47.786Z,8.92395
2019-02-20T12:28:16.682Z,8.984375
2019-02-20T12:31:52.225Z,8.964233
2019-02-20T12:35:16.461Z,8.883667
2019-02-20T12:38:44.364Z,8.863525
2019-02-20T12:42:13.025Z,8.813171
2019-02-20T12:45:40.186Z,8.782959
2019-02-20T12:49:08.099Z,8.803101
2019-02-20T12:52:36.020Z,8.712463
2019-02-20T12:56:09.773Z,8.702393
2019-02-20T12:59:36.618Z,8.813171
2019-02-20T13:03:03.721Z,8.92395
2019-02-20T13:06:31.626Z,8.994446
2019-02-20T13:09:59.538Z,9.0448
2019-02-20T13:13:27.457Z,9.155579
2019-02-20T13:16:55.370Z,9.115295
2019-02-20T13:20:23.287Z,9.155579
2019-02-20T13:23:51.199Z,9.256287
2019-02-20T13:27:22.641Z,9.145508
2019-02-20T13:30:49.036Z,9.216003
2019-02-20T13:34:18.809Z,9.336853
2019-02-20T13:37:46.675Z,9.477844
2019-02-20T13:41:14.588Z,9.367065
2019-02-20T13:44:43.525Z,9.367065
2019-02-20T13:48:11.444Z,9.54834
2019-02-20T13:51:39.626Z,9.367065
2019-02-20T13:55:08.528Z,9.236145
2019-02-20T13:58:36.416Z,9.216003
2019-02-20T14:02:05.258Z,9.105225
2019-02-20T14:05:34.049Z,9.034729
2019-02-20T14:09:01.965Z,8.984375
2019-02-20T14:12:30.109Z,9.0448
2019-02-20T14:15:58.043Z,9.085083
2019-02-20T14:19:25.961Z,9.115295
2019-02-20T14:22:53.911Z,9.135437
2019-02-20T14:26:21.781Z,9.075012
2019-02-20T14:29:49.711Z,8.994446
2019-02-20T14:33:17.611Z,9.034729
2019-02-20T14:36:45.518Z,9.014587
2019-02-20T14:40:13.726Z,8.853455
2019-02-20T14:43:41.368Z,8.752747
2019-02-20T14:47:09.278Z,8.702393
2019-02-20T14:50:37.195Z,8.631897
2019-02-20T14:54:06.118Z,8.561401
2019-02-20T14:57:34.016Z,8.500977
2019-02-20T15:01:01.940Z,8.470764
2019-02-20T15:04:30.878Z,8.380127
2019-02-20T15:07:58.815Z,8.309631
2019-02-20T15:11:28.703Z,8.319702
2019-02-20T15:14:56.625Z,8.319702
2019-02-20T15:18:27.543Z,8.349915
2019-02-20T15:21:55.448Z,8.349915
2019-02-20T15:26:01.923Z,8.279419
2019-02-20T15:29:38.772Z,8.279419
2019-02-20T15:33:06.733Z,8.279419
2019-02-20T15:36:34.633Z,8.239136
2019-02-20T15:40:02.548Z,8.279419
2019-02-20T15:43:30.784Z,8.229065
2019-02-20T15:46:59.735Z,8.239136
2019-02-20T15:50:27.737Z,8.208923
2019-02-20T15:53:55.687Z,8.198853
2019-02-20T15:57:23.647Z,8.198853
2019-02-20T16:00:53.710Z,8.158569
2019-02-20T16:04:21.634Z,8.138428
2019-02-20T16:07:49.598Z,8.098145
2019-02-20T16:11:18.495Z,8.057861
2019-02-20T16:14:46.437Z,8.047791
2019-02-20T16:18:15.525Z,8.03772
2019-02-20T16:21:44.456Z,7.977295
2019-02-20T16:25:13.383Z,7.947083
2019-02-20T16:28:41.941Z,7.937012
2019-02-20T16:32:11.148Z,7.906799
2019-02-20T16:35:42.285Z,7.866516
2019-02-20T16:39:13.218Z,7.826233
2019-02-20T16:42:44.768Z,7.796021
2019-02-20T16:46:13.129Z,7.755737
2019-02-20T16:49:42.014Z,7.705383
2019-02-20T16:53:10.006Z,7.655029
2019-02-20T16:56:38.003Z,7.644958
2019-02-20T17:00:06.956Z,7.604675
2019-02-20T17:03:35.883Z,7.503967
2019-02-20T17:07:04.154Z,7.463684
2019-02-20T17:10:35.278Z,7.403259
2019-02-20T17:14:03.226Z,7.362976
2019-02-20T17:17:31.169Z,7.312622
2019-02-20T17:20:59.124Z,7.262268
2019-02-20T17:24:27.044Z,7.221985
2019-02-20T17:27:55.979Z,7.191772
2019-02-20T17:31:27.857Z,7.181702
2019-02-20T17:34:55.789Z,7.181702
2019-02-20T17:38:23.726Z,7.16156
2019-02-20T17:41:51.657Z,7.111206
2019-02-20T17:45:23.694Z,7.131348
2019-02-20T17:49:08.897Z,7.111206
2019-02-20T17:52:36.864Z,7.101135
2019-02-20T17:56:04.770Z,7.111206
2019-02-20T17:59:32.696Z,7.080994
2019-02-20T18:03:02.407Z,7.060852
2019-02-20T18:06:33.469Z,7.04071
2019-02-20T18:10:08.258Z,7.04071
2019-02-20T18:13:45.019Z,7.03064
2019-02-20T18:17:13.078Z,7.010498
2019-02-20T18:20:43.256Z,7.010498
2019-02-20T18:29:05.509Z,7.03064
2019-02-20T18:32:33.540Z,7.000427
2019-02-20T18:36:01.596Z,7.010498
2019-02-20T18:39:33.601Z,7.000427
2019-02-20T18:43:04.230Z,6.990356
2019-02-20T18:46:38.205Z,7.000427
2019-02-20T18:50:06.262Z,6.990356
2019-02-20T18:53:44.981Z,6.929932
2019-02-20T19:00:45.920Z,6.90979
2019-02-20T19:04:13.950Z,6.859436
2019-02-20T19:07:42.320Z,6.809082
2019-02-20T19:11:10.177Z,6.819153
2019-02-20T19:14:38.184Z,6.819153
2019-02-20T19:18:06.294Z,6.809082
2019-02-20T19:21:34.300Z,6.819153
2019-02-20T19:25:02.412Z,6.829224
2019-02-20T19:28:31.440Z,6.819153
2019-02-20T19:32:04.446Z,6.819153
2019-02-20T19:35:32.390Z,6.809082
2019-02-20T19:39:00.379Z,6.819153
2019-02-20T19:42:28.301Z,6.879578
2019-02-20T19:45:56.212Z,6.879578
2019-02-20T19:49:25.177Z,6.889648
2019-02-20T19:52:53.164Z,6.859436
2019-02-20T19:56:22.020Z,6.889648
2019-02-20T19:59:49.962Z,6.849365
2019-02-20T20:03:17.888Z,6.859436
2019-02-20T20:06:45.862Z,6.879578
2019-02-20T20:10:13.944Z,6.879578
2019-02-20T20:13:41.858Z,6.849365
2019-02-20T20:17:09.798Z,6.829224
2019-02-20T20:20:39.719Z,6.829224
2019-02-20T20:24:10.038Z,6.849365
2019-02-20T20:27:36.591Z,6.859436
2019-02-20T20:31:04.612Z,6.849365
2019-02-20T20:34:33.978Z,6.829224
2019-02-20T20:38:06.043Z,6.829224
2019-02-20T20:41:34.607Z,6.809082
2019-02-20T20:45:02.545Z,6.809082
2019-02-20T20:48:30.564Z,6.809082
2019-02-20T20:51:58.555Z,6.809082
2019-02-20T20:55:26.914Z,6.748657
2019-02-20T20:58:54.672Z,6.748657
2019-02-20T21:02:23.608Z,6.77887
2019-02-20T21:05:51.525Z,6.738586
2019-02-20T21:09:19.471Z,6.728516
2019-02-20T21:12:47.454Z,6.728516
2019-02-20T21:16:16.393Z,6.708374
2019-02-20T21:19:44.329Z,6.698303
2019-02-20T21:23:12.249Z,6.708374
2019-02-20T21:26:43.623Z,6.698303
2019-02-20T21:30:10.279Z,6.698303
2019-02-20T21:33:39.214Z,6.698303
2019-02-20T21:37:07.120Z,6.668091
2019-02-20T21:40:35.059Z,6.678162
2019-02-20T21:44:03.005Z,6.668091
2019-02-20T21:47:30.921Z,6.668091
2019-02-20T21:50:58.859Z,6.698303
2019-02-20T21:54:26.819Z,6.698303
2019-02-20T21:57:54.743Z,6.678162
2019-02-20T22:01:22.661Z,6.668091
2019-02-20T22:04:50.590Z,6.647949
2019-02-20T22:08:18.548Z,6.647949
2019-02-20T22:11:46.456Z,6.647949
2019-02-20T22:15:14.781Z,6.647949
2019-02-20T22:18:42.341Z,6.647949
2019-02-20T22:22:10.271Z,6.647949
2019-02-20T22:25:38.196Z,6.647949
2019-02-20T22:29:06.133Z,6.647949
2019-02-20T22:32:34.055Z,6.637878
2019-02-20T22:36:02.983Z,6.637878
2019-02-20T22:39:30.932Z,6.637878
2019-02-20T22:42:58.925Z,6.647949
2019-02-20T22:46:26.846Z,6.647949
2019-02-20T22:49:56.500Z,6.647949
2019-02-20T22:53:23.710Z,6.678162
2019-02-20T22:56:51.641Z,6.668091
